Bookmark and Share
Track history (hours):
 

Billy Budd

Last reported at 2014-Mar-25 11:17 UTC. Time now 2014-Apr-24 05:56 UTC.
Position N 44°19' E 009°20'.
Warning: this ship's position is 29 days out of date.

Length 35 m.

Type: Sailing vessel. MMSI: 235003490.

NotesDate/timePositionNaut miles runAvg speedWind from/ knotsBaromVisibWave heightAir tempDewpointWater temp
2014-Mar-25 11:17N 44°19' E 009°20'0 0.0
2014-Mar-25 02:23N 44°19' E 009°20'  
2014-Mar-22 20:05N 44°19' E 009°20'0 0.0
2014-Mar-21 19:23N 44°19' E 009°20'0 0.0
2014-Mar-21 12:11N 44°19' E 009°20'2 1.1
2014-Mar-21 10:07N 44°16' E 009°19'4 6.8
2014-Mar-21 09:34N 44°14' E 009°15'7 7.3
2014-Mar-21 08:34N 44°10' E 009°07'8 7.9
2014-Mar-21 07:33N 44°05' E 008°58'8 7.8
2014-Mar-21 06:33N 43°60' E 008°50'9 8.6
2014-Mar-21 05:31N 43°54' E 008°40'8 7.9
2014-Mar-21 04:28N 43°49' E 008°31'9 7.9
2014-Mar-21 03:21N 43°44' E 008°22'8 8.1
2014-Mar-21 02:20N 43°38' E 008°13'7 8.1
2014-Mar-21 01:30N 43°34' E 008°06'25 8.3
2014-Mar-20 22:31N 43°17' E 007°40'9 8.5
2014-Mar-20 21:30N 43°12' E 007°32'9 8.5
2014-Mar-20 20:23N 43°05' E 007°22'9 8.1
2014-Mar-20 19:13N 42°59' E 007°13'6 8.0
2014-Mar-20 18:31N 42°55' E 007°07'8 8.0
2014-Mar-20 17:31N 42°50' E 006°59'235 8.7
2014-Mar-19 14:33N 40°12' E 003°06'8 8.0
2014-Mar-19 13:33N 40°06' E 002°59'8 8.2
2014-Mar-19 12:33N 40°00' E 002°51'8 8.4
2014-Mar-19 11:33N 39°54' E 002°43'8 8.3
2014-Mar-19 10:33N 39°48' E 002°36'12 9.0
2014-Mar-19 09:16N 39°40' E 002°25'11 6.3
2014-Mar-19 07:33N 39°30' E 002°24'8 7.5
2014-Mar-19 06:33N 39°29' E 002°34'5 5.0
2014-Mar-19 05:33N 39°33' E 002°38'1 1.3
2014-Mar-19 04:33N 39°34' E 002°38'0 0.0
2014-Mar-19 03:33N 39°34' E 002°38'0 0.0
2014-Mar-19 02:33N 39°34' E 002°38'0 0.0
2014-Mar-19 01:33N 39°34' E 002°38'0 0.0
2014-Mar-19 00:33N 39°34' E 002°38'0 0.0
2014-Mar-18 23:33N 39°34' E 002°38'0 0.0
2014-Mar-18 22:33N 39°34' E 002°38'0 0.0
2014-Mar-18 21:33N 39°34' E 002°38'0 0.0
2014-Mar-18 20:33N 39°34' E 002°38'0 0.0
2014-Mar-18 19:33N 39°34' E 002°38'0 0.0
2014-Mar-18 18:33N 39°34' E 002°38'0 0.0
2014-Mar-18 17:33N 39°34' E 002°38'0 0.0
2014-Mar-18 16:33N 39°34' E 002°38'0 0.0
2014-Mar-18 15:33N 39°34' E 002°38'0 0.0
2014-Mar-18 14:33N 39°34' E 002°38'0 0.0
2014-Mar-18 13:33N 39°34' E 002°38'0 0.0
2014-Mar-18 12:33N 39°34' E 002°38'0 0.0
2014-Mar-18 11:33N 39°34' E 002°38'0 0.0
2014-Mar-18 10:33N 39°34' E 002°38'0 0.0
2014-Mar-18 09:33N 39°34' E 002°38'0 0.0
2014-Mar-18 08:33N 39°34' E 002°38'0 0.0
2014-Mar-18 07:33N 39°34' E 002°38'0 0.0
2014-Mar-18 06:33N 39°34' E 002°38'0 0.0
2014-Mar-18 05:33N 39°34' E 002°38'0 0.0
2014-Mar-18 04:33N 39°34' E 002°38'0 0.0
2014-Mar-18 03:33N 39°34' E 002°38'0 0.0
2014-Mar-18 02:33N 39°34' E 002°38'0 0.0
2014-Mar-18 01:33N 39°34' E 002°38'0 0.0
2014-Mar-18 00:33N 39°34' E 002°38'0 0.0
2014-Mar-17 23:33N 39°34' E 002°38'0 0.0
2014-Mar-17 22:33N 39°34' E 002°38'0 0.0
2014-Mar-17 21:33N 39°34' E 002°38'0 0.0
2014-Mar-17 20:33N 39°34' E 002°38'0 0.0
2014-Mar-17 19:33N 39°34' E 002°38'0 0.0
2014-Mar-17 18:33N 39°34' E 002°38'0 0.0
2014-Mar-17 17:33N 39°34' E 002°38'0 0.0
2014-Mar-17 16:33N 39°34' E 002°38'0 0.0
2014-Mar-17 15:33N 39°34' E 002°38'0 0.0
2014-Mar-17 14:33N 39°34' E 002°38'0 0.0
2014-Mar-17 13:33N 39°34' E 002°38'0 0.0
2014-Mar-17 12:33N 39°34' E 002°38'0 0.0
2014-Mar-17 11:33N 39°34' E 002°38'0 0.0
2014-Mar-17 10:33N 39°34' E 002°38'0 0.0
2014-Mar-17 09:33N 39°34' E 002°38'0 0.0
2014-Mar-17 08:33N 39°34' E 002°38'0 0.0
2014-Mar-17 07:33N 39°34' E 002°38'0 0.0
2014-Mar-17 06:33N 39°34' E 002°38'0 0.0
2014-Mar-17 05:33N 39°34' E 002°38'0 0.0
2014-Mar-17 04:33N 39°34' E 002°38'0 0.0
2014-Mar-17 03:33N 39°34' E 002°38'0 0.0
2014-Mar-17 02:33N 39°34' E 002°38'0 0.0
2014-Mar-17 01:33N 39°34' E 002°38'0 0.0
2014-Mar-17 00:33N 39°34' E 002°38'0 0.0
2014-Mar-16 23:33N 39°34' E 002°38'0 0.0
2014-Mar-16 19:24N 39°34' E 002°38'0 0.0
2014-Mar-16 18:33N 39°34' E 002°38'0 0.0
2014-Mar-16 17:33N 39°34' E 002°38'0 0.0
2014-Mar-16 16:33N 39°34' E 002°38'0 0.0
2014-Mar-16 15:33N 39°34' E 002°38'0 0.0
2014-Mar-16 13:33N 39°34' E 002°38'0 0.0
2014-Mar-16 12:33N 39°34' E 002°38'0 0.0
2014-Mar-16 11:33N 39°34' E 002°38'0 0.0
2014-Mar-16 10:33N 39°34' E 002°38'0 0.0
2014-Mar-16 09:33N 39°34' E 002°38'0 0.0
2014-Mar-16 08:33N 39°34' E 002°38'0 0.0
2014-Mar-16 07:33N 39°34' E 002°38'0 0.0
2014-Mar-16 06:33N 39°34' E 002°38'0 0.0
2014-Mar-16 05:33N 39°34' E 002°38'0 0.0
2014-Mar-16 04:33N 39°34' E 002°38'0 0.0
2014-Mar-16 03:33N 39°34' E 002°38'0 0.0
2014-Mar-16 02:33N 39°34' E 002°38'0 0.0
2014-Mar-16 01:33N 39°34' E 002°38'0 0.0
2014-Mar-16 00:33N 39°34' E 002°38'0 0.0
2014-Mar-15 23:33N 39°34' E 002°38'0 0.0
2014-Mar-15 22:33N 39°34' E 002°38'0 0.0
2014-Mar-15 21:33N 39°34' E 002°38'0 0.0
2014-Mar-15 21:00N 39°34' E 002°38'0 0.0
2014-Mar-15 13:33N 39°34' E 002°38'0 0.0
2014-Mar-15 12:33N 39°34' E 002°38'6 5.7
2014-Mar-15 11:33N 39°29' E 002°34'  

Dump ship's entire track history

sailing weather and tide predictions

Billy Budd — VSPI7 — position and weather